AAY2927 KPSM-KSFB
Flight info
| Callsign | AAY2927 |
|---|---|
| Flight time | 2h 58m |
| Altitude | 36000 |
| Route | CON CAM ALB BIZEX Q75 GSO Q83 ROYCO Q85 LPERD TTHOR3 |
| Aircraft | A320/M-SDE3FGHIRWY/LB1 |
Departure
| Time | 2026-05-07 15:46 |
|---|---|
| Airport | Portsmouth International Airport at Pease (KPSM) |
Arrival
| Time | 2026-05-07 18:45 |
|---|---|
| Airport | Orlando Sanford International Airport (KSFB) |
| Time | Latitude | Longitude | Altitude | Speed | Heading |
|---|---|---|---|---|---|
| 2026-05-07 15:10 | 43.08184 | -70.81783 | 103 ft | 0 kts | 49° |
| 2026-05-07 15:35 | 43.08180 | -70.81789 | 103 ft | 2 kts | 49° |
| 2026-05-07 15:35 | 43.08169 | -70.81807 | 102 ft | 2 kts | 49° |
| 2026-05-07 15:36 | 43.08158 | -70.81824 | 102 ft | 3 kts | 60° |
| 2026-05-07 15:36 | 43.08151 | -70.81847 | 103 ft | 3 kts | 95° |
| 2026-05-07 15:36 | 43.08156 | -70.81870 | 102 ft | 3 kts | 130° |
| 2026-05-07 15:36 | 43.08169 | -70.81886 | 100 ft | 2 kts | 148° |
| 2026-05-07 15:37 | 43.08174 | -70.81890 | 100 ft | 0 kts | 148° |
| 2026-05-07 15:40 | 43.08152 | -70.81877 | 102 ft | 5 kts | 167° |
| 2026-05-07 15:40 | 43.08118 | -70.81907 | 103 ft | 8 kts | 239° |
| 2026-05-07 15:40 | 43.08085 | -70.81988 | 102 ft | 10 kts | 240° |
| 2026-05-07 15:41 | 43.08035 | -70.82056 | 103 ft | 11 kts | 184° |
| 2026-05-07 15:41 | 43.07973 | -70.82015 | 103 ft | 11 kts | 149° |
| 2026-05-07 15:41 | 43.07883 | -70.81942 | 102 ft | 18 kts | 149° |
| 2026-05-07 15:41 | 43.07783 | -70.81860 | 103 ft | 16 kts | 149° |
| 2026-05-07 15:42 | 43.07690 | -70.81784 | 103 ft | 18 kts | 149° |
| 2026-05-07 15:42 | 43.07573 | -70.81688 | 102 ft | 20 kts | 149° |
| 2026-05-07 15:42 | 43.07451 | -70.81588 | 102 ft | 20 kts | 149° |
| 2026-05-07 15:42 | 43.07338 | -70.81496 | 102 ft | 18 kts | 149° |
| 2026-05-07 15:43 | 43.07237 | -70.81414 | 101 ft | 16 kts | 149° |
| 2026-05-07 15:43 | 43.07147 | -70.81340 | 101 ft | 14 kts | 149° |
| 2026-05-07 15:43 | 43.07061 | -70.81270 | 101 ft | 17 kts | 149° |
| 2026-05-07 15:43 | 43.06945 | -70.81176 | 100 ft | 19 kts | 149° |
| 2026-05-07 15:44 | 43.06836 | -70.81088 | 102 ft | 17 kts | 151° |
| 2026-05-07 15:44 | 43.06739 | -70.81011 | 100 ft | 15 kts | 149° |
| 2026-05-07 15:44 | 43.06650 | -70.80955 | 101 ft | 13 kts | 176° |
| 2026-05-07 15:44 | 43.06582 | -70.81023 | 99 ft | 13 kts | 238° |
| 2026-05-07 15:45 | 43.06531 | -70.81135 | 100 ft | 14 kts | 238° |
| 2026-05-07 15:45 | 43.06497 | -70.81249 | 98 ft | 11 kts | 286° |
| 2026-05-07 15:45 | 43.06578 | -70.81332 | 100 ft | 28 kts | 329° |
| 2026-05-07 15:45 | 43.06959 | -70.81644 | 98 ft | 96 kts | 329° |
| 2026-05-07 15:46 | 43.08671 | -70.83040 | 378 ft | 168 kts | 325° |
| 2026-05-07 15:46 | 43.09677 | -70.83853 | 1059 ft | 169 kts | 326° |
| 2026-05-07 15:46 | 43.10692 | -70.84662 | 1833 ft | 169 kts | 326° |
| 2026-05-07 15:47 | 43.11744 | -70.85493 | 2265 ft | 183 kts | 327° |
| 2026-05-07 15:47 | 43.12903 | -70.86412 | 2539 ft | 203 kts | 327° |
| 2026-05-07 15:47 | 43.14181 | -70.87439 | 2840 ft | 225 kts | 327° |
| 2026-05-07 15:47 | 43.15597 | -70.88577 | 3249 ft | 245 kts | 327° |
| 2026-05-07 15:48 | 43.16941 | -70.90043 | 3947 ft | 250 kts | 306° |
| 2026-05-07 15:48 | 43.17687 | -70.92172 | 4820 ft | 250 kts | 281° |
| 2026-05-07 15:48 | 43.17894 | -70.94542 | 5684 ft | 251 kts | 275° |
| 2026-05-07 15:48 | 43.18056 | -70.96932 | 6501 ft | 253 kts | 275° |
| 2026-05-07 15:49 | 43.18211 | -70.99338 | 7310 ft | 254 kts | 274° |
| 2026-05-07 15:49 | 43.18365 | -71.01736 | 8199 ft | 252 kts | 274° |
| 2026-05-07 15:49 | 43.18522 | -71.04120 | 9095 ft | 250 kts | 273° |
| 2026-05-07 15:49 | 43.18680 | -71.06488 | 9963 ft | 249 kts | 273° |
| 2026-05-07 15:50 | 43.18839 | -71.08899 | 10385 ft | 265 kts | 272° |
| 2026-05-07 15:50 | 43.19008 | -71.11521 | 10535 ft | 288 kts | 272° |
| 2026-05-07 15:50 | 43.19189 | -71.14323 | 10910 ft | 300 kts | 272° |
| 2026-05-07 15:50 | 43.19378 | -71.17192 | 11554 ft | 304 kts | 272° |
| 2026-05-07 15:51 | 43.19571 | -71.20082 | 12278 ft | 305 kts | 271° |
| 2026-05-07 15:51 | 43.19764 | -71.22985 | 12992 ft | 307 kts | 270° |
| 2026-05-07 15:51 | 43.19959 | -71.25908 | 13675 ft | 309 kts | 270° |
| 2026-05-07 15:51 | 43.20151 | -71.28850 | 14290 ft | 311 kts | 269° |
| 2026-05-07 15:52 | 43.20344 | -71.31810 | 14897 ft | 313 kts | 269° |
| 2026-05-07 15:52 | 43.20536 | -71.34786 | 15479 ft | 315 kts | 269° |
| 2026-05-07 15:52 | 43.20727 | -71.37783 | 16072 ft | 317 kts | 269° |
| 2026-05-07 15:52 | 43.20920 | -71.40801 | 16657 ft | 319 kts | 269° |
| 2026-05-07 15:53 | 43.21114 | -71.43838 | 17219 ft | 321 kts | 269° |
| 2026-05-07 15:53 | 43.21305 | -71.46898 | 17796 ft | 323 kts | 269° |
| 2026-05-07 15:53 | 43.21498 | -71.49980 | 18331 ft | 325 kts | 269° |
| 2026-05-07 15:53 | 43.21617 | -71.53068 | 18817 ft | 323 kts | 262° |
| 2026-05-07 15:54 | 43.21213 | -71.56058 | 19300 ft | 319 kts | 249° |
| 2026-05-07 15:54 | 43.20235 | -71.58776 | 19786 ft | 320 kts | 237° |
| 2026-05-07 15:54 | 43.18739 | -71.61057 | 20261 ft | 326 kts | 224° |
| 2026-05-07 15:54 | 43.16947 | -71.62989 | 20717 ft | 329 kts | 223° |
| 2026-05-07 15:55 | 43.15134 | -71.64929 | 21155 ft | 331 kts | 224° |
| 2026-05-07 15:55 | 43.13312 | -71.66882 | 21586 ft | 333 kts | 224° |
| 2026-05-07 15:55 | 43.11482 | -71.68845 | 22025 ft | 335 kts | 224° |
| 2026-05-07 15:55 | 43.09665 | -71.70792 | 22449 ft | 337 kts | 224° |
| 2026-05-07 15:56 | 43.07789 | -71.72803 | 22876 ft | 339 kts | 224° |
| 2026-05-07 15:56 | 43.05952 | -71.74773 | 23295 ft | 341 kts | 224° |
| 2026-05-07 15:56 | 43.04079 | -71.76780 | 23665 ft | 343 kts | 224° |
| 2026-05-07 15:56 | 43.02197 | -71.78793 | 24054 ft | 343 kts | 225° |
| 2026-05-07 15:57 | 43.00318 | -71.80801 | 24444 ft | 343 kts | 225° |
| 2026-05-07 15:57 | 42.98438 | -71.82810 | 24849 ft | 343 kts | 225° |
| 2026-05-07 15:57 | 42.96557 | -71.84817 | 25246 ft | 342 kts | 225° |
| 2026-05-07 15:57 | 42.94683 | -71.86816 | 25658 ft | 341 kts | 225° |
| 2026-05-07 15:58 | 42.92814 | -71.88806 | 26072 ft | 340 kts | 225° |
| 2026-05-07 15:58 | 42.90948 | -71.90790 | 26482 ft | 340 kts | 226° |
| 2026-05-07 15:58 | 42.89086 | -71.92768 | 26893 ft | 339 kts | 226° |
| 2026-05-07 15:58 | 42.87231 | -71.94737 | 27284 ft | 338 kts | 226° |
| 2026-05-07 15:59 | 42.85377 | -71.96702 | 27663 ft | 337 kts | 226° |
| 2026-05-07 15:59 | 42.83525 | -71.98659 | 28017 ft | 337 kts | 226° |
| 2026-05-07 15:59 | 42.81653 | -72.00638 | 28373 ft | 336 kts | 226° |
| 2026-05-07 15:59 | 42.79811 | -72.02593 | 28715 ft | 336 kts | 226° |
| 2026-05-07 16:00 | 42.77971 | -72.04544 | 29046 ft | 335 kts | 226° |
| 2026-05-07 16:00 | 42.76132 | -72.06490 | 29383 ft | 335 kts | 226° |
| 2026-05-07 16:00 | 42.74298 | -72.08427 | 29809 ft | 332 kts | 227° |
| 2026-05-07 16:00 | 42.72484 | -72.10339 | 30251 ft | 328 kts | 227° |
| 2026-05-07 16:01 | 42.70691 | -72.12230 | 30639 ft | 325 kts | 227° |
| 2026-05-07 16:01 | 42.68914 | -72.14105 | 30971 ft | 323 kts | 227° |
| 2026-05-07 16:01 | 42.67145 | -72.15974 | 31292 ft | 322 kts | 227° |
| 2026-05-07 16:01 | 42.65381 | -72.17834 | 31616 ft | 320 kts | 227° |
| 2026-05-07 16:02 | 42.63625 | -72.19678 | 31943 ft | 318 kts | 227° |
| 2026-05-07 16:02 | 42.61900 | -72.21485 | 32257 ft | 317 kts | 227° |
| 2026-05-07 16:02 | 42.60160 | -72.23308 | 32571 ft | 316 kts | 227° |
| 2026-05-07 16:02 | 42.58425 | -72.25131 | 32834 ft | 315 kts | 227° |
| 2026-05-07 16:03 | 42.56692 | -72.26958 | 33095 ft | 315 kts | 228° |
| 2026-05-07 16:03 | 42.54962 | -72.28776 | 33409 ft | 314 kts | 228° |
| 2026-05-07 16:03 | 42.53240 | -72.30580 | 33698 ft | 313 kts | 228° |
| 2026-05-07 16:03 | 42.51518 | -72.32380 | 33946 ft | 312 kts | 228° |
| 2026-05-07 16:04 | 42.49799 | -72.34182 | 34131 ft | 313 kts | 228° |
| 2026-05-07 16:04 | 42.48076 | -72.35985 | 34313 ft | 313 kts | 228° |
| 2026-05-07 16:04 | 42.46345 | -72.37792 | 34483 ft | 315 kts | 227° |
| 2026-05-07 16:04 | 42.44612 | -72.39607 | 34643 ft | 316 kts | 227° |
| 2026-05-07 16:05 | 42.42871 | -72.41429 | 34796 ft | 317 kts | 227° |
| 2026-05-07 16:05 | 42.41124 | -72.43255 | 34947 ft | 318 kts | 227° |
| 2026-05-07 16:05 | 42.39368 | -72.45087 | 35089 ft | 320 kts | 227° |
| 2026-05-07 16:05 | 42.37601 | -72.46924 | 35213 ft | 321 kts | 227° |
| 2026-05-07 16:06 | 42.35827 | -72.48767 | 35367 ft | 322 kts | 227° |
| 2026-05-07 16:06 | 42.34048 | -72.50619 | 35525 ft | 323 kts | 227° |
| 2026-05-07 16:06 | 42.32270 | -72.52468 | 35665 ft | 324 kts | 227° |
| 2026-05-07 16:06 | 42.30480 | -72.54321 | 35805 ft | 324 kts | 227° |
| 2026-05-07 16:07 | 42.28684 | -72.56177 | 35855 ft | 326 kts | 227° |
| 2026-05-07 16:07 | 42.25068 | -72.59916 | 35857 ft | 328 kts | 227° |
| 2026-05-07 16:08 | 42.21444 | -72.63665 | 35867 ft | 328 kts | 227° |
| 2026-05-07 16:08 | 42.18433 | -72.66782 | 35896 ft | 328 kts | 227° |
| 2026-05-07 16:09 | 42.14801 | -72.70533 | 35901 ft | 329 kts | 227° |
| 2026-05-07 16:09 | 42.11163 | -72.74279 | 35894 ft | 329 kts | 227° |
| 2026-05-07 16:10 | 42.07522 | -72.78017 | 35888 ft | 329 kts | 227° |
| 2026-05-07 16:10 | 42.03877 | -72.81753 | 35877 ft | 329 kts | 227° |
| 2026-05-07 16:11 | 42.00232 | -72.85495 | 35881 ft | 330 kts | 227° |
| 2026-05-07 16:11 | 41.96584 | -72.89238 | 35872 ft | 330 kts | 227° |
| 2026-05-07 16:12 | 41.92927 | -72.92980 | 35868 ft | 331 kts | 227° |
| 2026-05-07 16:12 | 41.89258 | -72.96725 | 35863 ft | 331 kts | 227° |
| 2026-05-07 16:13 | 41.85583 | -73.00464 | 35867 ft | 332 kts | 227° |
| 2026-05-07 16:13 | 41.81907 | -73.04209 | 35867 ft | 332 kts | 227° |
| 2026-05-07 16:14 | 41.78245 | -73.07927 | 35875 ft | 332 kts | 227° |
| 2026-05-07 16:14 | 41.74561 | -73.11674 | 35881 ft | 333 kts | 227° |
| 2026-05-07 16:15 | 41.70864 | -73.15417 | 35891 ft | 333 kts | 227° |
| 2026-05-07 16:15 | 41.67169 | -73.19166 | 35871 ft | 334 kts | 227° |
| 2026-05-07 16:16 | 41.63462 | -73.22909 | 35877 ft | 334 kts | 227° |
| 2026-05-07 16:16 | 41.59748 | -73.26653 | 35871 ft | 335 kts | 227° |
| 2026-05-07 16:17 | 41.56029 | -73.30402 | 35876 ft | 335 kts | 227° |
| 2026-05-07 16:17 | 41.52300 | -73.34155 | 35872 ft | 336 kts | 227° |
| 2026-05-07 16:18 | 41.48569 | -73.37911 | 35893 ft | 337 kts | 227° |
| 2026-05-07 16:18 | 41.44827 | -73.41666 | 35889 ft | 337 kts | 227° |
| 2026-05-07 16:19 | 41.41078 | -73.45419 | 35894 ft | 337 kts | 227° |
| 2026-05-07 16:19 | 41.37323 | -73.49166 | 35889 ft | 338 kts | 227° |
| 2026-05-07 16:20 | 41.33565 | -73.52918 | 35894 ft | 338 kts | 227° |
| 2026-05-07 16:20 | 41.29797 | -73.56668 | 35887 ft | 338 kts | 227° |
| 2026-05-07 16:21 | 41.26619 | -73.60987 | 35889 ft | 326 kts | 238° |
| 2026-05-07 16:21 | 41.23785 | -73.65685 | 35872 ft | 326 kts | 238° |
| 2026-05-07 16:22 | 41.20934 | -73.70385 | 35879 ft | 327 kts | 238° |
| 2026-05-07 16:22 | 41.18071 | -73.75076 | 35873 ft | 327 kts | 238° |
| 2026-05-07 16:23 | 41.15203 | -73.79771 | 35881 ft | 328 kts | 238° |
| 2026-05-07 16:23 | 41.12361 | -73.84499 | 35879 ft | 328 kts | 239° |
| 2026-05-07 16:24 | 41.09545 | -73.89256 | 35883 ft | 328 kts | 239° |
| 2026-05-07 16:24 | 41.06724 | -73.94008 | 35885 ft | 328 kts | 239° |
| 2026-05-07 16:25 | 41.03895 | -73.98763 | 35896 ft | 329 kts | 239° |
| 2026-05-07 16:25 | 41.01053 | -74.03521 | 35892 ft | 329 kts | 239° |
| 2026-05-07 16:26 | 40.98203 | -74.08278 | 35895 ft | 330 kts | 239° |
| 2026-05-07 16:26 | 40.95352 | -74.13046 | 35888 ft | 330 kts | 239° |
| 2026-05-07 16:27 | 40.92493 | -74.17808 | 35901 ft | 331 kts | 239° |
| 2026-05-07 16:27 | 40.89624 | -74.22570 | 35902 ft | 331 kts | 239° |
| 2026-05-07 16:28 | 40.86773 | -74.27311 | 35896 ft | 332 kts | 239° |
| 2026-05-07 16:28 | 40.83896 | -74.32084 | 35904 ft | 332 kts | 239° |
| 2026-05-07 16:29 | 40.81012 | -74.36853 | 35926 ft | 333 kts | 239° |
| 2026-05-07 16:29 | 40.78121 | -74.41627 | 35926 ft | 333 kts | 239° |
| 2026-05-07 16:30 | 40.75228 | -74.46404 | 35931 ft | 334 kts | 239° |
| 2026-05-07 16:30 | 40.72322 | -74.51185 | 35926 ft | 334 kts | 239° |
| 2026-05-07 16:31 | 40.69413 | -74.55965 | 35913 ft | 334 kts | 239° |
| 2026-05-07 16:31 | 40.66503 | -74.60748 | 35906 ft | 335 kts | 239° |
| 2026-05-07 16:32 | 40.63587 | -74.65534 | 35915 ft | 335 kts | 239° |
| 2026-05-07 16:32 | 40.60660 | -74.70322 | 35909 ft | 336 kts | 239° |
| 2026-05-07 16:33 | 40.57710 | -74.75098 | 35913 ft | 338 kts | 238° |
| 2026-05-07 16:33 | 40.54536 | -74.79690 | 35913 ft | 340 kts | 236° |
| 2026-05-07 16:34 | 40.51269 | -74.84202 | 35915 ft | 341 kts | 236° |
| 2026-05-07 16:34 | 40.48022 | -74.88731 | 35915 ft | 341 kts | 236° |
| 2026-05-07 16:35 | 40.44786 | -74.93281 | 35921 ft | 341 kts | 236° |
| 2026-05-07 16:35 | 40.41550 | -74.97839 | 35921 ft | 341 kts | 236° |
| 2026-05-07 16:36 | 40.38307 | -75.02398 | 35923 ft | 342 kts | 236° |
| 2026-05-07 16:36 | 40.35066 | -75.06961 | 35918 ft | 342 kts | 236° |
| 2026-05-07 16:37 | 40.31818 | -75.11528 | 35920 ft | 343 kts | 236° |
| 2026-05-07 16:37 | 40.28556 | -75.16095 | 35915 ft | 343 kts | 236° |
| 2026-05-07 16:38 | 40.25284 | -75.20658 | 35920 ft | 344 kts | 236° |
| 2026-05-07 16:38 | 40.22012 | -75.25231 | 35929 ft | 344 kts | 236° |
| 2026-05-07 16:39 | 40.18734 | -75.29807 | 35941 ft | 345 kts | 236° |
| 2026-05-07 16:39 | 40.15449 | -75.34370 | 35941 ft | 345 kts | 236° |
| 2026-05-07 16:40 | 40.12154 | -75.38941 | 35936 ft | 345 kts | 236° |
| 2026-05-07 16:40 | 40.08865 | -75.43513 | 35937 ft | 345 kts | 236° |
| 2026-05-07 16:41 | 40.05567 | -75.48079 | 35947 ft | 346 kts | 236° |
| 2026-05-07 16:41 | 40.02269 | -75.52650 | 35944 ft | 346 kts | 236° |
| 2026-05-07 16:42 | 39.98962 | -75.57219 | 35952 ft | 346 kts | 237° |
| 2026-05-07 16:42 | 39.95652 | -75.61787 | 35942 ft | 348 kts | 237° |
| 2026-05-07 16:43 | 39.92323 | -75.66369 | 35940 ft | 348 kts | 237° |
| 2026-05-07 16:43 | 39.89157 | -75.71081 | 35935 ft | 344 kts | 240° |
| 2026-05-07 16:44 | 39.86180 | -75.75946 | 35923 ft | 344 kts | 240° |
| 2026-05-07 16:44 | 39.83201 | -75.80821 | 35913 ft | 344 kts | 240° |
| 2026-05-07 16:45 | 39.80207 | -75.85641 | 35919 ft | 345 kts | 240° |
| 2026-05-07 16:45 | 39.77145 | -75.90518 | 35921 ft | 346 kts | 240° |
| 2026-05-07 16:46 | 39.74097 | -75.95353 | 35926 ft | 346 kts | 240° |
| 2026-05-07 16:46 | 39.71051 | -76.00189 | 35940 ft | 346 kts | 240° |
| 2026-05-07 16:47 | 39.68018 | -76.04985 | 35949 ft | 346 kts | 240° |
| 2026-05-07 16:47 | 39.64957 | -76.09815 | 35944 ft | 346 kts | 240° |
| 2026-05-07 16:48 | 39.61901 | -76.14645 | 35955 ft | 346 kts | 240° |
| 2026-05-07 16:48 | 39.58839 | -76.19470 | 35954 ft | 347 kts | 240° |
| 2026-05-07 16:49 | 39.55731 | -76.24253 | 35953 ft | 347 kts | 239° |
| 2026-05-07 16:49 | 39.52613 | -76.29034 | 35947 ft | 347 kts | 239° |
| 2026-05-07 16:50 | 39.49496 | -76.33816 | 35945 ft | 348 kts | 239° |
| 2026-05-07 16:50 | 39.46370 | -76.38601 | 35964 ft | 349 kts | 239° |
| 2026-05-07 16:51 | 39.43011 | -76.43210 | 35968 ft | 354 kts | 236° |
| 2026-05-07 16:51 | 39.39498 | -76.47695 | 35964 ft | 355 kts | 235° |
| 2026-05-07 16:52 | 39.35970 | -76.52171 | 35967 ft | 357 kts | 234° |
| 2026-05-07 16:52 | 39.32212 | -76.56442 | 35968 ft | 362 kts | 232° |
| 2026-05-07 16:53 | 39.28339 | -76.60600 | 35946 ft | 362 kts | 231° |
| 2026-05-07 16:53 | 39.24474 | -76.64777 | 35939 ft | 362 kts | 232° |
| 2026-05-07 16:54 | 39.20685 | -76.68930 | 35943 ft | 362 kts | 232° |
| 2026-05-07 16:54 | 39.16854 | -76.73147 | 35944 ft | 362 kts | 232° |
| 2026-05-07 16:55 | 39.13019 | -76.77360 | 35962 ft | 363 kts | 232° |
| 2026-05-07 16:55 | 39.09823 | -76.80857 | 35958 ft | 363 kts | 232° |
| 2026-05-07 16:56 | 39.05961 | -76.85063 | 35964 ft | 364 kts | 232° |
| 2026-05-07 16:56 | 39.00177 | -76.91386 | 35942 ft | 364 kts | 232° |
| 2026-05-07 16:57 | 38.96314 | -76.95603 | 35945 ft | 365 kts | 232° |
| 2026-05-07 16:57 | 38.92444 | -76.99814 | 35943 ft | 365 kts | 232° |
| 2026-05-07 16:58 | 38.88565 | -77.04030 | 35958 ft | 365 kts | 232° |
| 2026-05-07 16:58 | 38.84693 | -77.08243 | 35935 ft | 365 kts | 232° |
| 2026-05-07 16:59 | 38.80813 | -77.12462 | 35936 ft | 366 kts | 232° |
| 2026-05-07 16:59 | 38.76925 | -77.16681 | 35951 ft | 366 kts | 232° |
| 2026-05-07 17:00 | 38.73031 | -77.20898 | 35951 ft | 367 kts | 232° |
| 2026-05-07 17:00 | 38.69123 | -77.25112 | 35939 ft | 367 kts | 232° |
| 2026-05-07 17:01 | 38.65240 | -77.29307 | 35929 ft | 368 kts | 232° |
| 2026-05-07 17:01 | 38.61320 | -77.33535 | 35941 ft | 369 kts | 232° |
| 2026-05-07 17:02 | 38.57399 | -77.37764 | 35951 ft | 369 kts | 232° |
| 2026-05-07 17:02 | 38.53467 | -77.41998 | 35959 ft | 370 kts | 231° |
| 2026-05-07 17:03 | 38.49517 | -77.46231 | 35960 ft | 371 kts | 231° |
| 2026-05-07 17:03 | 38.45560 | -77.50462 | 35951 ft | 371 kts | 231° |
| 2026-05-07 17:04 | 38.41603 | -77.54699 | 35951 ft | 371 kts | 231° |
| 2026-05-07 17:04 | 38.37648 | -77.58938 | 35959 ft | 372 kts | 231° |
| 2026-05-07 17:05 | 38.33681 | -77.63165 | 35960 ft | 372 kts | 231° |
| 2026-05-07 17:05 | 38.29712 | -77.67389 | 35953 ft | 372 kts | 231° |
| 2026-05-07 17:06 | 38.25742 | -77.71617 | 35957 ft | 372 kts | 231° |
| 2026-05-07 17:06 | 38.21770 | -77.75838 | 35968 ft | 372 kts | 230° |
| 2026-05-07 17:07 | 38.17793 | -77.80047 | 35963 ft | 372 kts | 230° |
| 2026-05-07 17:07 | 38.13809 | -77.84264 | 35959 ft | 373 kts | 230° |
| 2026-05-07 17:08 | 38.09828 | -77.88481 | 35951 ft | 373 kts | 230° |
| 2026-05-07 17:08 | 38.05830 | -77.92697 | 35954 ft | 374 kts | 230° |
| 2026-05-07 17:09 | 38.01829 | -77.96908 | 35949 ft | 374 kts | 230° |
| 2026-05-07 17:09 | 37.97823 | -78.01130 | 35951 ft | 375 kts | 229° |
| 2026-05-07 17:10 | 37.93840 | -78.05322 | 35951 ft | 375 kts | 229° |
| 2026-05-07 17:10 | 37.89820 | -78.09535 | 35955 ft | 375 kts | 229° |
| 2026-05-07 17:11 | 37.85794 | -78.13753 | 35957 ft | 376 kts | 229° |
| 2026-05-07 17:11 | 37.81770 | -78.17973 | 35957 ft | 376 kts | 229° |
| 2026-05-07 17:12 | 37.77742 | -78.22191 | 35970 ft | 376 kts | 229° |
| 2026-05-07 17:12 | 37.73706 | -78.26400 | 35967 ft | 376 kts | 229° |
| 2026-05-07 17:13 | 37.69666 | -78.30606 | 35963 ft | 376 kts | 229° |
| 2026-05-07 17:13 | 37.65623 | -78.34811 | 35961 ft | 377 kts | 229° |
| 2026-05-07 17:14 | 37.61578 | -78.39017 | 35953 ft | 377 kts | 229° |
| 2026-05-07 17:14 | 37.57527 | -78.43219 | 35955 ft | 377 kts | 229° |
| 2026-05-07 17:15 | 37.53477 | -78.47417 | 35947 ft | 377 kts | 229° |
| 2026-05-07 17:15 | 37.49419 | -78.51608 | 35952 ft | 377 kts | 229° |
| 2026-05-07 17:16 | 37.45366 | -78.55794 | 35951 ft | 377 kts | 229° |
| 2026-05-07 17:16 | 37.41315 | -78.59979 | 35956 ft | 376 kts | 229° |
| 2026-05-07 17:17 | 37.37262 | -78.64149 | 35956 ft | 376 kts | 229° |
| 2026-05-07 17:17 | 37.33212 | -78.68311 | 35958 ft | 376 kts | 229° |
| 2026-05-07 17:18 | 37.29172 | -78.72470 | 35954 ft | 375 kts | 229° |
| 2026-05-07 17:18 | 37.25158 | -78.76595 | 35951 ft | 375 kts | 229° |
| 2026-05-07 17:19 | 37.21118 | -78.80737 | 35941 ft | 375 kts | 229° |
| 2026-05-07 17:19 | 37.17071 | -78.84871 | 35942 ft | 375 kts | 229° |
| 2026-05-07 17:20 | 37.13020 | -78.89000 | 35938 ft | 375 kts | 229° |
| 2026-05-07 17:20 | 37.08971 | -78.93124 | 35938 ft | 375 kts | 229° |
| 2026-05-07 17:21 | 37.04928 | -78.97241 | 35935 ft | 375 kts | 229° |
| 2026-05-07 17:21 | 37.00883 | -79.01363 | 35936 ft | 375 kts | 229° |
| 2026-05-07 17:22 | 36.96837 | -79.05476 | 35935 ft | 375 kts | 229° |
| 2026-05-07 17:22 | 36.92791 | -79.09581 | 35931 ft | 374 kts | 229° |
| 2026-05-07 17:23 | 36.88746 | -79.13678 | 35930 ft | 374 kts | 229° |
| 2026-05-07 17:23 | 36.84724 | -79.17741 | 35933 ft | 374 kts | 229° |
| 2026-05-07 17:24 | 36.80679 | -79.21820 | 35925 ft | 374 kts | 229° |
| 2026-05-07 17:24 | 36.76636 | -79.25898 | 35926 ft | 374 kts | 229° |
| 2026-05-07 17:25 | 36.72592 | -79.29967 | 35924 ft | 374 kts | 229° |
| 2026-05-07 17:25 | 36.68550 | -79.34038 | 35925 ft | 373 kts | 229° |
| 2026-05-07 17:26 | 36.64508 | -79.38101 | 35923 ft | 373 kts | 229° |
| 2026-05-07 17:26 | 36.60461 | -79.42156 | 35925 ft | 373 kts | 229° |
| 2026-05-07 17:27 | 36.56417 | -79.46209 | 35922 ft | 373 kts | 229° |
| 2026-05-07 17:27 | 36.52372 | -79.50252 | 35925 ft | 373 kts | 229° |
| 2026-05-07 17:28 | 36.48327 | -79.54289 | 35919 ft | 373 kts | 229° |
| 2026-05-07 17:28 | 36.44288 | -79.58317 | 35918 ft | 372 kts | 229° |
| 2026-05-07 17:29 | 36.40249 | -79.62335 | 35920 ft | 372 kts | 229° |
| 2026-05-07 17:29 | 36.36213 | -79.66347 | 35924 ft | 371 kts | 229° |
| 2026-05-07 17:30 | 36.32185 | -79.70355 | 35924 ft | 371 kts | 229° |
| 2026-05-07 17:30 | 36.28158 | -79.74353 | 35918 ft | 371 kts | 229° |
| 2026-05-07 17:31 | 36.24127 | -79.78342 | 35896 ft | 371 kts | 229° |
| 2026-05-07 17:31 | 36.20099 | -79.82323 | 35898 ft | 370 kts | 229° |
| 2026-05-07 17:32 | 36.16069 | -79.86301 | 35897 ft | 370 kts | 229° |
| 2026-05-07 17:32 | 36.12723 | -79.89603 | 35896 ft | 370 kts | 229° |
| 2026-05-07 17:33 | 36.08015 | -79.94239 | 35892 ft | 370 kts | 229° |
| 2026-05-07 17:33 | 36.03789 | -79.97961 | 35895 ft | 384 kts | 218° |
| 2026-05-07 17:34 | 35.98763 | -80.00538 | 35881 ft | 392 kts | 214° |
| 2026-05-07 17:34 | 35.93691 | -80.03038 | 35877 ft | 393 kts | 214° |
| 2026-05-07 17:35 | 35.88651 | -80.05525 | 35870 ft | 393 kts | 214° |
| 2026-05-07 17:35 | 35.83544 | -80.08043 | 35931 ft | 392 kts | 214° |
| 2026-05-07 17:36 | 35.78606 | -80.10445 | 35892 ft | 377 kts | 215° |
| 2026-05-07 17:36 | 35.73759 | -80.12825 | 35896 ft | 374 kts | 215° |
| 2026-05-07 17:37 | 35.68942 | -80.15212 | 35897 ft | 373 kts | 215° |
| 2026-05-07 17:37 | 35.64122 | -80.17588 | 35889 ft | 373 kts | 215° |
| 2026-05-07 17:38 | 35.59293 | -80.19954 | 35898 ft | 374 kts | 215° |
| 2026-05-07 17:38 | 35.54462 | -80.22310 | 35894 ft | 374 kts | 215° |
| 2026-05-07 17:39 | 35.49632 | -80.24668 | 35890 ft | 374 kts | 215° |
| 2026-05-07 17:39 | 35.44803 | -80.27036 | 35885 ft | 374 kts | 215° |
| 2026-05-07 17:40 | 35.39958 | -80.29376 | 35880 ft | 378 kts | 212° |
| 2026-05-07 17:40 | 35.37344 | -80.30157 | 35874 ft | 395 kts | 204° |
| 2026-05-07 17:40 | 35.34624 | -80.30673 | 35869 ft | 396 kts | 204° |
| 2026-05-07 17:41 | 35.29172 | -80.31692 | 35864 ft | 397 kts | 203° |
| 2026-05-07 17:41 | 35.23719 | -80.32712 | 35858 ft | 396 kts | 203° |
| 2026-05-07 17:42 | 35.18266 | -80.33743 | 35844 ft | 397 kts | 204° |
| 2026-05-07 17:42 | 35.12807 | -80.34777 | 35844 ft | 397 kts | 204° |
| 2026-05-07 17:43 | 35.07345 | -80.35822 | 35845 ft | 397 kts | 204° |
| 2026-05-07 17:43 | 35.01876 | -80.36862 | 35848 ft | 398 kts | 203° |
| 2026-05-07 17:44 | 34.96397 | -80.37887 | 35844 ft | 399 kts | 203° |
| 2026-05-07 17:44 | 34.91837 | -80.38735 | 35844 ft | 399 kts | 203° |
| 2026-05-07 17:45 | 34.86354 | -80.39763 | 35842 ft | 399 kts | 203° |
| 2026-05-07 17:45 | 34.80861 | -80.40792 | 35847 ft | 399 kts | 203° |
| 2026-05-07 17:46 | 34.75367 | -80.41829 | 35838 ft | 400 kts | 203° |
| 2026-05-07 17:46 | 34.69868 | -80.42866 | 35840 ft | 400 kts | 202° |
| 2026-05-07 17:47 | 34.64356 | -80.43889 | 35841 ft | 401 kts | 202° |
| 2026-05-07 17:47 | 34.58837 | -80.44911 | 35843 ft | 401 kts | 202° |
| 2026-05-07 17:48 | 34.53318 | -80.45944 | 35848 ft | 401 kts | 202° |
| 2026-05-07 17:48 | 34.47821 | -80.47066 | 35852 ft | 398 kts | 204° |
| 2026-05-07 17:49 | 34.42422 | -80.48471 | 35858 ft | 396 kts | 206° |
| 2026-05-07 17:49 | 34.37044 | -80.49948 | 35861 ft | 397 kts | 205° |
| 2026-05-07 17:50 | 34.31631 | -80.51379 | 35859 ft | 399 kts | 205° |
| 2026-05-07 17:50 | 34.26192 | -80.52772 | 35861 ft | 400 kts | 205° |
| 2026-05-07 17:51 | 34.20737 | -80.54166 | 35860 ft | 401 kts | 204° |
| 2026-05-07 17:51 | 34.15267 | -80.55551 | 35862 ft | 402 kts | 204° |
| 2026-05-07 17:52 | 34.09782 | -80.56930 | 35849 ft | 403 kts | 204° |
| 2026-05-07 17:52 | 34.04286 | -80.58311 | 35850 ft | 404 kts | 204° |
| 2026-05-07 17:53 | 33.98777 | -80.59697 | 35850 ft | 405 kts | 204° |
| 2026-05-07 17:53 | 33.93262 | -80.61091 | 35848 ft | 405 kts | 204° |
| 2026-05-07 17:54 | 33.87736 | -80.62490 | 35844 ft | 406 kts | 204° |
| 2026-05-07 17:54 | 33.82204 | -80.63890 | 35844 ft | 407 kts | 204° |
| 2026-05-07 17:55 | 33.76654 | -80.65289 | 35847 ft | 408 kts | 204° |
| 2026-05-07 17:55 | 33.71094 | -80.66680 | 35854 ft | 408 kts | 204° |
| 2026-05-07 17:56 | 33.65528 | -80.68072 | 35891 ft | 409 kts | 204° |
| 2026-05-07 17:56 | 33.59951 | -80.69465 | 35900 ft | 409 kts | 204° |
| 2026-05-07 17:57 | 33.55315 | -80.70623 | 35903 ft | 410 kts | 204° |
| 2026-05-07 17:57 | 33.48822 | -80.72253 | 35908 ft | 411 kts | 203° |
| 2026-05-07 17:58 | 33.43225 | -80.73650 | 35911 ft | 411 kts | 203° |
| 2026-05-07 17:58 | 33.37620 | -80.75045 | 35884 ft | 412 kts | 203° |
| 2026-05-07 17:59 | 33.32002 | -80.76441 | 35887 ft | 413 kts | 203° |
| 2026-05-07 17:59 | 33.26377 | -80.77832 | 35889 ft | 413 kts | 203° |
| 2026-05-07 18:00 | 33.20741 | -80.79234 | 35886 ft | 414 kts | 202° |
| 2026-05-07 18:00 | 33.15088 | -80.80631 | 35898 ft | 415 kts | 202° |
| 2026-05-07 18:01 | 33.09425 | -80.82025 | 35905 ft | 416 kts | 202° |
| 2026-05-07 18:01 | 33.03756 | -80.83428 | 35902 ft | 416 kts | 202° |
| 2026-05-07 18:02 | 32.95232 | -80.85528 | 35909 ft | 418 kts | 202° |
| 2026-05-07 18:03 | 32.89377 | -80.86345 | 35908 ft | 436 kts | 189° |
| 2026-05-07 18:03 | 32.83258 | -80.85825 | 35904 ft | 444 kts | 185° |
| 2026-05-07 18:04 | 32.77104 | -80.85148 | 35908 ft | 444 kts | 185° |
| 2026-05-07 18:04 | 32.70935 | -80.84512 | 35916 ft | 445 kts | 185° |
| 2026-05-07 18:05 | 32.64756 | -80.83901 | 35917 ft | 446 kts | 185° |
| 2026-05-07 18:05 | 32.58616 | -80.83316 | 35919 ft | 446 kts | 185° |
| 2026-05-07 18:06 | 32.52425 | -80.82747 | 35920 ft | 446 kts | 185° |
| 2026-05-07 18:06 | 32.46235 | -80.82200 | 35919 ft | 446 kts | 185° |
| 2026-05-07 18:07 | 32.40045 | -80.81670 | 35922 ft | 446 kts | 185° |
| 2026-05-07 18:07 | 32.33850 | -80.81150 | 35930 ft | 446 kts | 185° |
| 2026-05-07 18:08 | 32.27652 | -80.80641 | 35930 ft | 447 kts | 185° |
| 2026-05-07 18:08 | 32.21448 | -80.80195 | 35929 ft | 446 kts | 186° |
| 2026-05-07 18:09 | 32.15247 | -80.79859 | 35927 ft | 446 kts | 186° |
| 2026-05-07 18:09 | 32.09042 | -80.79543 | 35923 ft | 447 kts | 186° |
| 2026-05-07 18:10 | 32.02830 | -80.79202 | 35919 ft | 448 kts | 186° |
| 2026-05-07 18:10 | 31.96602 | -80.78853 | 35916 ft | 448 kts | 186° |
| 2026-05-07 18:11 | 31.90364 | -80.78498 | 35913 ft | 449 kts | 186° |
| 2026-05-07 18:11 | 31.84113 | -80.78142 | 35922 ft | 450 kts | 186° |
| 2026-05-07 18:12 | 31.77864 | -80.77791 | 35927 ft | 450 kts | 186° |
| 2026-05-07 18:12 | 31.71604 | -80.77439 | 35932 ft | 450 kts | 186° |
| 2026-05-07 18:13 | 31.65341 | -80.77089 | 35940 ft | 451 kts | 186° |
| 2026-05-07 18:13 | 31.59113 | -80.76753 | 35943 ft | 451 kts | 186° |
| 2026-05-07 18:14 | 31.52845 | -80.76425 | 35949 ft | 451 kts | 186° |
| 2026-05-07 18:14 | 31.46565 | -80.76103 | 35957 ft | 452 kts | 186° |
| 2026-05-07 18:15 | 31.40281 | -80.75790 | 35961 ft | 452 kts | 186° |
| 2026-05-07 18:15 | 31.33994 | -80.75487 | 35958 ft | 452 kts | 186° |
| 2026-05-07 18:16 | 31.27708 | -80.75193 | 35960 ft | 453 kts | 186° |
| 2026-05-07 18:16 | 31.21405 | -80.74907 | 35962 ft | 453 kts | 186° |
| 2026-05-07 18:17 | 31.15098 | -80.74627 | 35971 ft | 454 kts | 186° |
| 2026-05-07 18:17 | 31.08786 | -80.74347 | 35966 ft | 454 kts | 186° |
| 2026-05-07 18:18 | 31.02469 | -80.74068 | 35969 ft | 454 kts | 186° |
| 2026-05-07 18:18 | 30.96147 | -80.73794 | 35971 ft | 455 kts | 186° |
| 2026-05-07 18:19 | 30.89815 | -80.73520 | 35970 ft | 455 kts | 186° |
| 2026-05-07 18:19 | 30.86644 | -80.73383 | 35837 ft | 456 kts | 186° |
| 2026-05-07 18:19 | 30.83474 | -80.73246 | 35639 ft | 456 kts | 186° |
| 2026-05-07 18:19 | 30.80298 | -80.73107 | 35451 ft | 457 kts | 186° |
| 2026-05-07 18:20 | 30.77119 | -80.72967 | 35259 ft | 458 kts | 186° |
| 2026-05-07 18:20 | 30.73936 | -80.72824 | 35067 ft | 458 kts | 186° |
| 2026-05-07 18:20 | 30.70748 | -80.72679 | 34879 ft | 459 kts | 186° |
| 2026-05-07 18:20 | 30.67555 | -80.72531 | 34692 ft | 460 kts | 186° |
| 2026-05-07 18:21 | 30.64349 | -80.72380 | 34503 ft | 461 kts | 186° |
| 2026-05-07 18:21 | 30.61141 | -80.72225 | 34321 ft | 462 kts | 186° |
| 2026-05-07 18:21 | 30.57973 | -80.72072 | 34139 ft | 462 kts | 186° |
| 2026-05-07 18:21 | 30.54759 | -80.71916 | 33959 ft | 462 kts | 186° |
| 2026-05-07 18:22 | 30.51551 | -80.71761 | 33989 ft | 462 kts | 186° |
| 2026-05-07 18:22 | 30.45130 | -80.71455 | 33990 ft | 461 kts | 186° |
| 2026-05-07 18:23 | 30.38723 | -80.71154 | 33995 ft | 460 kts | 186° |
| 2026-05-07 18:23 | 30.32326 | -80.70859 | 33853 ft | 460 kts | 186° |
| 2026-05-07 18:23 | 30.29131 | -80.70714 | 33590 ft | 459 kts | 186° |
| 2026-05-07 18:24 | 30.25936 | -80.70572 | 33307 ft | 459 kts | 186° |
| 2026-05-07 18:24 | 30.22742 | -80.70433 | 33023 ft | 460 kts | 186° |
| 2026-05-07 18:24 | 30.19542 | -80.70299 | 32718 ft | 461 kts | 186° |
| 2026-05-07 18:24 | 30.16337 | -80.70168 | 32419 ft | 461 kts | 186° |
| 2026-05-07 18:25 | 30.13131 | -80.70040 | 32120 ft | 460 kts | 186° |
| 2026-05-07 18:25 | 30.09941 | -80.69928 | 31832 ft | 457 kts | 187° |
| 2026-05-07 18:25 | 30.06769 | -80.69923 | 31414 ft | 453 kts | 189° |
| 2026-05-07 18:25 | 30.03637 | -80.70022 | 30960 ft | 448 kts | 190° |
| 2026-05-07 18:26 | 30.00537 | -80.70181 | 30526 ft | 444 kts | 191° |
| 2026-05-07 18:26 | 29.97459 | -80.70359 | 30094 ft | 441 kts | 191° |
| 2026-05-07 18:26 | 29.94400 | -80.70527 | 29564 ft | 439 kts | 191° |
| 2026-05-07 18:26 | 29.91363 | -80.70675 | 29027 ft | 435 kts | 190° |
| 2026-05-07 18:27 | 29.88347 | -80.70802 | 28506 ft | 432 kts | 190° |
| 2026-05-07 18:27 | 29.85352 | -80.70912 | 27985 ft | 429 kts | 189° |
| 2026-05-07 18:27 | 29.82375 | -80.71018 | 27408 ft | 426 kts | 189° |
| 2026-05-07 18:27 | 29.80417 | -80.71087 | 27042 ft | 424 kts | 189° |
| 2026-05-07 18:28 | 29.76493 | -80.71219 | 26340 ft | 420 kts | 189° |
| 2026-05-07 18:28 | 29.73586 | -80.71320 | 25795 ft | 417 kts | 189° |
| 2026-05-07 18:28 | 29.70699 | -80.71425 | 25262 ft | 414 kts | 189° |
| 2026-05-07 18:28 | 29.67832 | -80.71531 | 24735 ft | 411 kts | 189° |
| 2026-05-07 18:29 | 29.64982 | -80.71638 | 24228 ft | 408 kts | 189° |
| 2026-05-07 18:29 | 29.62155 | -80.71744 | 23722 ft | 405 kts | 189° |
| 2026-05-07 18:29 | 29.59344 | -80.71853 | 23146 ft | 403 kts | 189° |
| 2026-05-07 18:29 | 29.56547 | -80.71962 | 22550 ft | 401 kts | 189° |
| 2026-05-07 18:30 | 29.53761 | -80.72070 | 21961 ft | 400 kts | 189° |
| 2026-05-07 18:30 | 29.51020 | -80.72174 | 21391 ft | 398 kts | 189° |
| 2026-05-07 18:30 | 29.48216 | -80.72278 | 20824 ft | 397 kts | 188° |
| 2026-05-07 18:30 | 29.45497 | -80.72380 | 20276 ft | 396 kts | 188° |
| 2026-05-07 18:31 | 29.42753 | -80.72483 | 19740 ft | 395 kts | 188° |
| 2026-05-07 18:31 | 29.40039 | -80.72583 | 19193 ft | 384 kts | 188° |
| 2026-05-07 18:31 | 29.37413 | -80.72675 | 18667 ft | 372 kts | 188° |
| 2026-05-07 18:31 | 29.34866 | -80.72765 | 18134 ft | 361 kts | 188° |
| 2026-05-07 18:32 | 29.32389 | -80.72851 | 17541 ft | 352 kts | 188° |
| 2026-05-07 18:32 | 29.29975 | -80.72937 | 16966 ft | 343 kts | 188° |
| 2026-05-07 18:32 | 29.27614 | -80.73025 | 16401 ft | 336 kts | 188° |
| 2026-05-07 18:32 | 29.25300 | -80.73111 | 15845 ft | 329 kts | 188° |
| 2026-05-07 18:33 | 29.23037 | -80.73195 | 15367 ft | 321 kts | 188° |
| 2026-05-07 18:33 | 29.20827 | -80.73276 | 14898 ft | 315 kts | 188° |
| 2026-05-07 18:33 | 29.18653 | -80.73359 | 14436 ft | 311 kts | 188° |
| 2026-05-07 18:33 | 29.16495 | -80.73443 | 13980 ft | 309 kts | 188° |
| 2026-05-07 18:34 | 29.14369 | -80.73525 | 13493 ft | 304 kts | 187° |
| 2026-05-07 18:34 | 29.12946 | -80.73580 | 13147 ft | 301 kts | 187° |
| 2026-05-07 18:34 | 29.10859 | -80.73663 | 12650 ft | 299 kts | 187° |
| 2026-05-07 18:34 | 29.08778 | -80.73745 | 12203 ft | 301 kts | 187° |
| 2026-05-07 18:35 | 29.06680 | -80.73826 | 11778 ft | 303 kts | 187° |
| 2026-05-07 18:35 | 29.04574 | -80.73904 | 11341 ft | 301 kts | 186° |
| 2026-05-07 18:35 | 29.02504 | -80.73976 | 10915 ft | 295 kts | 187° |
| 2026-05-07 18:35 | 29.00522 | -80.74271 | 10503 ft | 288 kts | 198° |
| 2026-05-07 18:36 | 28.98602 | -80.74855 | 10113 ft | 284 kts | 199° |
| 2026-05-07 18:36 | 28.96696 | -80.75446 | 9726 ft | 284 kts | 199° |
| 2026-05-07 18:36 | 28.94790 | -80.76035 | 9324 ft | 283 kts | 199° |
| 2026-05-07 18:36 | 28.92888 | -80.76621 | 8920 ft | 283 kts | 199° |
| 2026-05-07 18:37 | 28.90996 | -80.77222 | 8514 ft | 281 kts | 203° |
| 2026-05-07 18:37 | 28.89280 | -80.78220 | 8137 ft | 275 kts | 218° |
| 2026-05-07 18:37 | 28.87890 | -80.79690 | 7748 ft | 271 kts | 232° |
| 2026-05-07 18:37 | 28.86912 | -80.81482 | 7369 ft | 261 kts | 246° |
| 2026-05-07 18:38 | 28.86201 | -80.83337 | 6990 ft | 251 kts | 246° |
| 2026-05-07 18:38 | 28.85506 | -80.85129 | 6618 ft | 243 kts | 246° |
| 2026-05-07 18:38 | 28.84827 | -80.86863 | 6240 ft | 237 kts | 246° |
| 2026-05-07 18:38 | 28.84161 | -80.88564 | 5840 ft | 232 kts | 246° |
| 2026-05-07 18:39 | 28.83511 | -80.90220 | 5451 ft | 226 kts | 246° |
| 2026-05-07 18:39 | 28.82874 | -80.91844 | 5067 ft | 224 kts | 246° |
| 2026-05-07 18:39 | 28.82238 | -80.93463 | 4682 ft | 223 kts | 245° |
| 2026-05-07 18:39 | 28.81600 | -80.95083 | 4289 ft | 224 kts | 245° |
| 2026-05-07 18:40 | 28.80965 | -80.96700 | 3977 ft | 224 kts | 245° |
| 2026-05-07 18:40 | 28.80332 | -80.98320 | 3735 ft | 223 kts | 245° |
| 2026-05-07 18:40 | 28.79708 | -80.99914 | 3562 ft | 217 kts | 245° |
| 2026-05-07 18:40 | 28.79112 | -81.01443 | 3378 ft | 206 kts | 245° |
| 2026-05-07 18:41 | 28.78546 | -81.02935 | 3124 ft | 205 kts | 249° |
| 2026-05-07 18:41 | 28.78251 | -81.04488 | 2945 ft | 197 kts | 263° |
| 2026-05-07 18:41 | 28.78197 | -81.06034 | 2726 ft | 195 kts | 268° |
| 2026-05-07 18:41 | 28.78188 | -81.07588 | 2483 ft | 199 kts | 268° |
| 2026-05-07 18:42 | 28.78187 | -81.09177 | 2222 ft | 199 kts | 269° |
| 2026-05-07 18:42 | 28.78187 | -81.10745 | 1973 ft | 196 kts | 268° |
| 2026-05-07 18:42 | 28.78186 | -81.12280 | 1758 ft | 190 kts | 268° |
| 2026-05-07 18:42 | 28.78186 | -81.13752 | 1492 ft | 180 kts | 268° |
| 2026-05-07 18:43 | 28.78186 | -81.15124 | 1260 ft | 167 kts | 267° |
| 2026-05-07 18:43 | 28.78185 | -81.16410 | 1059 ft | 155 kts | 268° |
| 2026-05-07 18:43 | 28.78183 | -81.17612 | 874 ft | 148 kts | 267° |
| 2026-05-07 18:43 | 28.78182 | -81.18774 | 674 ft | 145 kts | 265° |
| 2026-05-07 18:44 | 28.78180 | -81.19920 | 439 ft | 145 kts | 268° |
| 2026-05-07 18:44 | 28.78179 | -81.21069 | 287 ft | 144 kts | 268° |
| 2026-05-07 18:44 | 28.78179 | -81.22215 | 109 ft | 145 kts | 264° |
| 2026-05-07 18:44 | 28.78175 | -81.23292 | 63 ft | 117 kts | 270° |
| 2026-05-07 18:45 | 28.78176 | -81.24028 | 65 ft | 74 kts | 270° |
| 2026-05-07 18:45 | 28.78175 | -81.24468 | 62 ft | 22 kts | 270° |
| 2026-05-07 18:45 | 28.78118 | -81.24532 | 58 ft | 11 kts | 181° |
| 2026-05-07 18:45 | 28.78041 | -81.24534 | 59 ft | 11 kts | 181° |
| 2026-05-07 18:46 | 28.77957 | -81.24534 | 62 ft | 13 kts | 180° |
| 2026-05-07 18:46 | 28.77863 | -81.24534 | 59 ft | 15 kts | 180° |
| 2026-05-07 18:46 | 28.77792 | -81.24534 | 59 ft | 7 kts | 182° |
| 2026-05-07 18:46 | 28.77763 | -81.24574 | 63 ft | 8 kts | 263° |
| 2026-05-07 18:47 | 28.77757 | -81.24627 | 58 ft | 6 kts | 236° |
| 2026-05-07 18:47 | 28.77717 | -81.24626 | 56 ft | 7 kts | 164° |
| 2026-05-07 18:47 | 28.77677 | -81.24613 | 57 ft | 3 kts | 163° |
| 2026-05-07 18:47 | 28.77666 | -81.24609 | 60 ft | 1 kts | 163° |
| 2026-05-07 18:48 | 28.77665 | -81.24609 | 60 ft | 0 kts | 163° |